Time;durP1;ratioP1;P1;durP2;ratioP2;P2;SDS_P1;SDS_P2;PMS_P1;PMS_P2;Temp;Humidity;BMP_temperature;BMP_pressure;BME280_temperature;BME280_humidity;BME280_pressure;Samples;Min_cycle;Max_cycle;Signal;HPM_P1;HPM_P2
2022/05/29 00:02:48;;;;;;;4.65;2.13;;;;;;;;;;6343552;28;20055;-82
2022/05/29 00:05:49;;;;;;;4.75;2.40;;;;;;;;;;6302387;28;20032;-82
2022/05/29 00:08:51;;;;;;;5.65;2.65;;;;;;;;;;6320747;28;20050;-80
2022/05/29 00:11:53;;;;;;;7.32;3.70;;;;;;;;;;6299748;27;20039;-82
2022/05/29 00:14:55;;;;;;;4.75;3.20;;;;;;;;;;6336308;28;20131;-80
2022/05/29 00:17:56;;;;;;;8.63;4.30;;;;;;;;;;6314914;28;20047;-80
2022/05/29 00:20:59;;;;;;;8.20;3.25;;;;;;;;;;6313022;28;20043;-81
2022/05/29 00:24:02;;;;;;;6.50;3.67;;;;;;;;;;6340945;28;20180;-80
2022/05/29 00:27:04;;;;;;;5.32;2.45;;;;;;;;;;6331420;28;20128;-82
2022/05/29 00:30:09;;;;;;;6.88;2.90;;;;;;;;;;6321788;28;20044;-81
2022/05/29 00:33:11;;;;;;;6.35;2.70;;;;;;;;;;6324156;28;20608;-80
2022/05/29 00:36:15;;;;;;;6.65;2.88;;;;;;;;;;6337442;28;20089;-80
2022/05/29 00:39:17;;;;;;;4.65;2.03;;;;;;;;;;6340737;28;20589;-80
2022/05/29 00:42:22;;;;;;;7.85;2.20;;;;;;;;;;6341342;27;20043;-82
2022/05/29 00:45:25;;;;;;;6.65;2.22;;;;;;;;;;6325519;28;20177;-81
2022/05/29 00:48:27;;;;;;;5.78;1.88;;;;;;;;;;6323491;28;20048;-81
2022/05/29 00:51:29;;;;;;;3.70;2.00;;;;;;;;;;6333719;28;20059;-81
2022/05/29 00:54:37;;;;;;;4.90;2.65;;;;;;;;;;6324537;28;20104;-82
2022/05/29 00:57:46;;;;;;;3.60;2.30;;;;;;;;;;6321578;27;20039;-82
2022/05/29 01:00:51;;;;;;;6.80;2.20;;;;;;;;;;6312842;28;20682;-80
2022/05/29 01:03:52;;;;;;;6.85;2.60;;;;;;;;;;6340705;28;20059;-80
2022/05/29 01:06:54;;;;;;;4.45;2.17;;;;;;;;;;6324560;28;20140;-82
2022/05/29 01:09:58;;;;;;;3.00;2.28;;;;;;;;;;6339779;28;20058;-82
2022/05/29 01:13:30;;;;;;;3.97;2.22;;;;;;;;;;6312312;28;20062;-82
2022/05/29 01:16:44;;;;;;;3.63;2.15;;;;;;;;;;6321673;28;20040;-82
2022/05/29 01:20:21;;;;;;;6.05;2.78;;;;;;;;;;6307852;28;20549;-81
2022/05/29 01:23:35;;;;;;;8.05;3.13;;;;;;;;;;6340984;28;20576;-82
2022/05/29 01:26:58;;;;;;;;;;;;;;;;;;6340891;28;20047;-79
2022/05/29 01:30:11;;;;;;;7.20;2.83;;;;;;;;;;6329907;28;19920;-80
2022/05/29 01:33:21;;;;;;;;;;;;;;;;;;6341010;28;20118;-82
2022/05/29 01:36:50;;;;;;;5.15;3.22;;;;;;;;;;6332192;28;20057;-82
2022/05/29 01:40:08;;;;;;;7.30;3.08;;;;;;;;;;6320753;28;20050;-82
2022/05/29 01:43:50;;;;;;;6.70;2.83;;;;;;;;;;6299393;28;20130;-81
2022/05/29 01:47:00;;;;;;;5.53;2.65;;;;;;;;;;6293089;27;20103;-82
2022/05/29 01:50:08;;;;;;;5.03;3.00;;;;;;;;;;6303829;28;20044;-82
2022/05/29 01:53:50;;;;;;;6.57;3.25;;;;;;;;;;6323987;28;20134;-80
2022/05/29 01:56:57;;;;;;;6.03;2.90;;;;;;;;;;6225023;28;20459;-81
2022/05/29 02:00:08;;;;;;;4.47;2.88;;;;;;;;;;6241765;28;20050;-80
2022/05/29 02:03:26;;;;;;;6.03;2.83;;;;;;;;;;6342225;27;20051;-80
2022/05/29 02:10:29;;;;;;;8.73;2.83;;;;;;;;;;6344835;28;20238;-80
2022/05/29 02:13:46;;;;;;;4.18;2.08;;;;;;;;;;6342936;28;20047;-80
2022/05/29 02:16:55;;;;;;;3.50;1.92;;;;;;;;;;6345154;28;20143;-82
2022/05/29 02:20:10;;;;;;;4.85;2.58;;;;;;;;;;6340987;27;20154;-82
2022/05/29 02:23:20;;;;;;;7.05;3.15;;;;;;;;;;6333850;27;20039;-78
2022/05/29 02:26:25;;;;;;;5.75;3.67;;;;;;;;;;6335515;28;20111;-78
2022/05/29 02:29:28;;;;;;;8.00;3.72;;;;;;;;;;6349887;27;20085;-80
2022/05/29 02:32:36;;;;;;;7.87;3.10;;;;;;;;;;6326634;28;20116;-81
2022/05/29 02:35:55;;;;;;;7.22;2.72;;;;;;;;;;6334338;28;20145;-81
2022/05/29 02:39:23;;;;;;;5.38;2.90;;;;;;;;;;6311472;28;20040;-79
2022/05/29 02:42:28;;;;;;;7.28;2.85;;;;;;;;;;6340129;28;20031;-80
2022/05/29 02:45:40;;;;;;;7.25;3.38;;;;;;;;;;6326602;28;20041;-82
2022/05/29 02:48:42;;;;;;;6.22;3.55;;;;;;;;;;6341781;28;20051;-80
2022/05/29 02:51:51;;;;;;;8.43;3.85;;;;;;;;;;6306505;28;20044;-79
2022/05/29 02:54:53;;;;;;;8.88;4.10;;;;;;;;;;6323497;28;20048;-80
2022/05/29 02:57:59;;;;;;;7.10;3.30;;;;;;;;;;6339625;27;20115;-80
2022/05/29 03:01:33;;;;;;;9.43;3.28;;;;;;;;;;6306941;28;20131;-81
2022/05/29 03:05:07;;;;;;;4.95;3.08;;;;;;;;;;6274094;28;20176;-80
2022/05/29 03:08:34;;;;;;;6.45;3.15;;;;;;;;;;6271768;28;20059;-80
2022/05/29 03:11:41;;;;;;;4.28;2.22;;;;;;;;;;6344010;28;20050;-79
2022/05/29 03:15:12;;;;;;;3.92;2.17;;;;;;;;;;6343089;27;20033;-81
2022/05/29 03:18:35;;;;;;;3.08;2.08;;;;;;;;;;6333980;28;20049;-81
2022/05/29 03:21:45;;;;;;;3.95;2.22;;;;;;;;;;6324309;28;20039;-81
2022/05/29 03:25:09;;;;;;;3.63;2.28;;;;;;;;;;6344787;28;20185;-79
2022/05/29 03:28:25;;;;;;;3.78;2.35;;;;;;;;;;6340092;28;20043;-81
2022/05/29 03:31:29;;;;;;;6.05;2.58;;;;;;;;;;6339545;28;20043;-78
2022/05/29 03:34:30;;;;;;;5.32;2.65;;;;;;;;;;6341738;28;20067;-79
2022/05/29 03:37:32;;;;;;;6.22;2.30;;;;;;;;;;6318828;28;20138;-79
2022/05/29 03:40:34;;;;;;;6.85;3.72;;;;;;;;;;6320338;28;20042;-79
2022/05/29 03:43:36;;;;;;;5.60;3.10;;;;;;;;;;6344503;27;20126;-79
2022/05/29 03:46:39;;;;;;;4.85;2.22;;;;;;;;;;6323670;28;20157;-81
2022/05/29 03:49:40;;;;;;;4.18;2.47;;;;;;;;;;6340757;28;20075;-79
2022/05/29 03:52:43;;;;;;;4.97;2.38;;;;;;;;;;6322356;28;20122;-80
2022/05/29 03:55:45;;;;;;;5.32;2.50;;;;;;;;;;6323229;28;20438;-78
2022/05/29 03:58:47;;;;;;;9.48;4.20;;;;;;;;;;6320431;28;20107;-79
2022/05/29 04:01:48;;;;;;;8.55;4.88;;;;;;;;;;6339997;28;20134;-81
2022/05/29 04:04:50;;;;;;;7.80;4.38;;;;;;;;;;6317869;28;20050;-78
2022/05/29 04:14:41;;;;;;;5.15;2.67;;;;;;;;;;6316940;28;20051;-79
2022/05/29 04:17:42;;;;;;;6.45;2.33;;;;;;;;;;6341145;28;20044;-80
2022/05/29 04:20:45;;;;;;;6.70;2.90;;;;;;;;;;6347241;27;20039;-78
2022/05/29 04:23:47;;;;;;;7.32;3.42;;;;;;;;;;6341389;28;20132;-78
2022/05/29 04:26:49;;;;;;;4.78;2.47;;;;;;;;;;6341398;28;20055;-80
2022/05/29 04:29:50;;;;;;;3.78;2.20;;;;;;;;;;6339593;28;20099;-79
2022/05/29 04:33:01;;;;;;;6.63;2.42;;;;;;;;;;6341761;28;20122;-81
2022/05/29 04:36:03;;;;;;;5.85;2.42;;;;;;;;;;6339966;28;20044;-81
2022/05/29 04:39:05;;;;;;;3.87;2.37;;;;;;;;;;6338394;28;20051;-78
2022/05/29 04:42:07;;;;;;;7.80;2.60;;;;;;;;;;6322552;28;20047;-82
2022/05/29 04:45:09;;;;;;;7.32;2.38;;;;;;;;;;6340854;28;20066;-79
2022/05/29 04:48:12;;;;;;;6.38;2.47;;;;;;;;;;6322983;28;20089;-80
2022/05/29 04:51:14;;;;;;;3.80;2.20;;;;;;;;;;6324712;27;20062;-78
2022/05/29 04:54:16;;;;;;;5.47;2.17;;;;;;;;;;6341558;28;20040;-80
2022/05/29 04:57:18;;;;;;;6.10;2.60;;;;;;;;;;6325625;27;20043;-81
2022/05/29 05:00:20;;;;;;;8.63;2.53;;;;;;;;;;6340276;27;20127;-79
2022/05/29 05:03:23;;;;;;;4.60;2.15;;;;;;;;;;6323135;28;20044;-78
2022/05/29 05:06:24;;;;;;;3.20;2.25;;;;;;;;;;6334555;28;20044;-79
2022/05/29 05:09:28;;;;;;;8.50;2.60;;;;;;;;;;6340168;28;20043;-80
2022/05/29 05:12:29;;;;;;;6.63;3.17;;;;;;;;;;6336338;28;20127;-80
2022/05/29 05:15:39;;;;;;;4.57;1.80;;;;;;;;;;6339212;28;20096;-79
2022/05/29 05:19:17;;;;;;;6.97;2.38;;;;;;;;;;6330094;27;20574;-81
2022/05/29 05:22:19;;;;;;;3.55;2.10;;;;;;;;;;6339116;27;20054;-81
2022/05/29 05:25:20;;;;;;;4.22;2.33;;;;;;;;;;6340881;28;20035;-78
2022/05/29 05:28:22;;;;;;;4.40;2.30;;;;;;;;;;6318687;28;20094;-79
2022/05/29 05:31:25;;;;;;;5.15;2.40;;;;;;;;;;6265526;27;20082;-81
2022/05/29 05:34:30;;;;;;;7.10;2.40;;;;;;;;;;6318850;28;20453;-80
2022/05/29 05:37:35;;;;;;;4.90;2.00;;;;;;;;;;6315489;28;20419;-81
2022/05/29 05:40:37;;;;;;;7.68;2.60;;;;;;;;;;6344421;28;20453;-80
2022/05/29 05:43:39;;;;;;;3.13;2.00;;;;;;;;;;6342603;28;20122;-80
2022/05/29 05:46:46;;;;;;;7.32;2.92;;;;;;;;;;6317613;28;20158;-79
2022/05/29 05:49:49;;;;;;;5.85;2.25;;;;;;;;;;6344057;28;20039;-79
2022/05/29 05:52:50;;;;;;;6.30;2.40;;;;;;;;;;6356870;27;20083;-81
2022/05/29 05:55:52;;;;;;;4.65;2.53;;;;;;;;;;6341462;28;20043;-81
2022/05/29 05:58:54;;;;;;;3.22;2.17;;;;;;;;;;6347073;28;20071;-79
2022/05/29 06:01:56;;;;;;;5.93;2.03;;;;;;;;;;6340260;28;20044;-82
2022/05/29 06:04:58;;;;;;;8.75;2.70;;;;;;;;;;6321938;28;20040;-79
2022/05/29 06:08:00;;;;;;;3.97;1.92;;;;;;;;;;6340415;28;20047;-82
2022/05/29 06:11:02;;;;;;;4.38;1.60;;;;;;;;;;6339726;28;20047;-82
2022/05/29 06:14:03;;;;;;;6.28;1.70;;;;;;;;;;6327686;28;20093;-79
2022/05/29 06:17:05;;;;;;;4.50;1.92;;;;;;;;;;6341580;28;20043;-79
2022/05/29 06:20:08;;;;;;;3.75;1.70;;;;;;;;;;6345833;27;20056;-81
2022/05/29 06:23:11;;;;;;;6.20;1.60;;;;;;;;;;6330030;28;20050;-79
2022/05/29 06:26:13;;;;;;;5.03;1.60;;;;;;;;;;6325574;28;20924;-79
2022/05/29 06:29:14;;;;;;;4.75;1.80;;;;;;;;;;6355425;27;20067;-80
2022/05/29 06:32:16;;;;;;;4.30;1.67;;;;;;;;;;6340806;28;20043;-80
2022/05/29 06:35:18;;;;;;;3.60;1.50;;;;;;;;;;6350782;28;20248;-80
2022/05/29 06:38:20;;;;;;;2.35;1.40;;;;;;;;;;6341543;27;20070;-81
2022/05/29 06:41:24;;;;;;;5.20;1.60;;;;;;;;;;6319231;28;20043;-79
2022/05/29 06:44:26;;;;;;;4.90;1.50;;;;;;;;;;6345229;27;20047;-82
2022/05/29 06:47:27;;;;;;;5.50;1.67;;;;;;;;;;6298281;28;20051;-78
2022/05/29 06:50:29;;;;;;;4.85;2.05;;;;;;;;;;6326877;28;20054;-81
2022/05/29 06:53:31;;;;;;;5.38;1.30;;;;;;;;;;6331708;28;20039;-80
2022/05/29 06:56:32;;;;;;;4.40;1.63;;;;;;;;;;6338278;27;20598;-79
2022/05/29 07:06:58;;;;;;;3.75;1.50;;;;;;;;;;6344645;28;20053;-79
2022/05/29 07:07:01;;;;;;;4.90;1.55;;;;;;;;;;6330395;28;20093;-81
2022/05/29 07:09:44;;;;;;;4.93;1.80;;;;;;;;;;6329568;28;20123;-83
2022/05/29 07:12:48;;;;;;;4.60;1.75;;;;;;;;;;6299685;28;20411;-81
2022/05/29 07:15:50;;;;;;;4.13;1.70;;;;;;;;;;6341670;27;20043;-80
2022/05/29 07:18:54;;;;;;;1.63;1.30;;;;;;;;;;6341129;28;20509;-81
2022/05/29 07:21:57;;;;;;;;;;;;;;;;;;6345151;28;20036;-81
2022/05/29 07:24:58;;;;;;;3.43;1.30;;;;;;;;;;6325073;28;20007;-81
2022/05/29 07:28:00;;;;;;;2.35;1.40;;;;;;;;;;6343847;28;20122;-84
2022/05/29 07:31:03;;;;;;;3.33;1.70;;;;;;;;;;6328850;27;20051;-80
2022/05/29 07:34:04;;;;;;;1.80;1.23;;;;;;;;;;6345177;27;20063;-80
2022/05/29 07:37:09;;;;;;;5.75;1.42;;;;;;;;;;6343318;27;20441;-81
2022/05/29 07:40:11;;;;;;;4.63;1.50;;;;;;;;;;6346134;27;20112;-80
2022/05/29 07:43:19;;;;;;;3.05;1.38;;;;;;;;;;6333802;27;20633;-82
2022/05/29 07:46:21;;;;;;;3.13;1.50;;;;;;;;;;6344154;28;20035;-79
2022/05/29 07:49:23;;;;;;;2.92;1.15;;;;;;;;;;6321740;28;20055;-80
2022/05/29 07:52:26;;;;;;;2.08;1.20;;;;;;;;;;6326290;28;20104;-79
2022/05/29 07:55:28;;;;;;;2.28;1.45;;;;;;;;;;6348205;27;20051;-80
2022/05/29 07:58:29;;;;;;;2.95;1.33;;;;;;;;;;6348315;27;20096;-82
2022/05/29 08:01:32;;;;;;;3.92;1.88;;;;;;;;;;6347229;27;20103;-80
2022/05/29 08:04:33;;;;;;;2.00;1.17;;;;;;;;;;6320147;28;20050;-81
2022/05/29 08:07:36;;;;;;;4.25;1.63;;;;;;;;;;6326015;28;20078;-81
2022/05/29 08:10:40;;;;;;;3.22;1.50;;;;;;;;;;6343360;28;20047;-80
2022/05/29 08:13:41;;;;;;;4.35;1.80;;;;;;;;;;6329709;28;20488;-83
2022/05/29 08:16:43;;;;;;;4.63;1.40;;;;;;;;;;6325476;28;20040;-82
2022/05/29 08:19:45;;;;;;;2.90;1.55;;;;;;;;;;6343859;28;20150;-80
2022/05/29 08:22:46;;;;;;;2.42;1.35;;;;;;;;;;6326110;28;20516;-80
2022/05/29 08:32:29;;;;;;;4.25;1.30;;;;;;;;;;6344988;27;20499;-79
2022/05/29 08:35:31;;;;;;;1.88;1.33;;;;;;;;;;6327303;27;20510;-82
2022/05/29 08:38:37;;;;;;;2.25;1.27;;;;;;;;;;6347669;27;20048;-80
2022/05/29 08:41:39;;;;;;;6.70;1.48;;;;;;;;;;6337332;28;20052;-83
2022/05/29 08:44:48;;;;;;;2.58;1.40;;;;;;;;;;6344235;27;20043;-80
2022/05/29 08:47:50;;;;;;;3.33;1.50;;;;;;;;;;6337282;27;20503;-81
2022/05/29 08:51:13;;;;;;;4.20;1.25;;;;;;;;;;6341187;27;20047;-80
2022/05/29 08:54:40;;;;;;;4.80;1.40;;;;;;;;;;6345167;27;20047;-80
2022/05/29 08:58:13;;;;;;;2.38;1.27;;;;;;;;;;6348603;27;20050;-80
2022/05/29 09:01:28;;;;;;;2.63;1.45;;;;;;;;;;6321164;27;20051;-79
2022/05/29 09:04:40;;;;;;;2.40;1.40;;;;;;;;;;6347701;27;20061;-79
2022/05/29 09:07:43;;;;;;;1.45;0.93;;;;;;;;;;6334779;28;20420;-79
2022/05/29 09:10:56;;;;;;;2.53;1.15;;;;;;;;;;6329884;28;20039;-80
2022/05/29 09:14:30;;;;;;;3.67;1.45;;;;;;;;;;6337615;27;20046;-81
2022/05/29 09:17:49;;;;;;;2.42;1.13;;;;;;;;;;6322733;28;20043;-83
2022/05/29 09:20:58;;;;;;;2.25;1.15;;;;;;;;;;6330336;27;20074;-81
2022/05/29 09:24:06;;;;;;;3.60;1.50;;;;;;;;;;6326218;28;20130;-82
2022/05/29 09:27:10;;;;;;;2.63;1.30;;;;;;;;;;6319779;28;20114;-78
2022/05/29 09:30:12;;;;;;;1.98;1.50;;;;;;;;;;6318555;28;20047;-81
2022/05/29 09:33:19;;;;;;;2.80;1.60;;;;;;;;;;6323392;28;20167;-79
2022/05/29 09:36:44;;;;;;;3.20;1.55;;;;;;;;;;6337969;28;20063;-80
2022/05/29 09:39:52;;;;;;;2.45;1.10;;;;;;;;;;6320348;28;20575;-77
2022/05/29 09:42:55;;;;;;;3.15;1.30;;;;;;;;;;6338298;28;20311;-79
2022/05/29 09:46:21;;;;;;;2.80;1.30;;;;;;;;;;6324209;28;20040;-81
2022/05/29 09:49:42;;;;;;;2.45;1.48;;;;;;;;;;6324252;28;20047;-77
2022/05/29 09:52:44;;;;;;;2.30;1.10;;;;;;;;;;6340464;28;20054;-80
2022/05/29 09:55:50;;;;;;;1.50;1.23;;;;;;;;;;6322778;28;20123;-78
2022/05/29 09:58:56;;;;;;;2.65;1.20;;;;;;;;;;6347890;28;20065;-80
2022/05/29 10:02:02;;;;;;;1.73;1.50;;;;;;;;;;6341434;28;20093;-80
2022/05/29 10:05:08;;;;;;;1.90;1.50;;;;;;;;;;6346101;28;20051;-78
2022/05/29 10:08:25;;;;;;;2.20;1.40;;;;;;;;;;6341452;28;20519;-82
2022/05/29 10:11:31;;;;;;;3.67;1.90;;;;;;;;;;6326717;28;20093;-78
2022/05/29 10:14:43;;;;;;;3.80;2.10;;;;;;;;;;6348187;28;20055;-80
2022/05/29 10:17:44;;;;;;;3.30;2.35;;;;;;;;;;6336701;28;20047;-78
2022/05/29 10:20:46;;;;;;;2.75;2.47;;;;;;;;;;6337179;27;20063;-80
2022/05/29 10:23:53;;;;;;;4.47;2.67;;;;;;;;;;6343938;28;20058;-80
2022/05/29 10:27:00;;;;;;;2.80;2.50;;;;;;;;;;6343776;28;20130;-79
2022/05/29 10:30:12;;;;;;;4.55;2.90;;;;;;;;;;6343957;27;20059;-79
2022/05/29 10:33:27;;;;;;;3.33;2.67;;;;;;;;;;6323428;28;20528;-79
2022/05/29 10:36:29;;;;;;;2.90;2.55;;;;;;;;;;6338662;28;20040;-78
2022/05/29 10:39:31;;;;;;;13.02;7.03;;;;;;;;;;6336853;28;20496;-77
2022/05/29 10:42:44;;;;;;;5.40;3.40;;;;;;;;;;6329545;28;20126;-77
2022/05/29 10:45:47;;;;;;;5.15;3.00;;;;;;;;;;6329838;28;20052;-79
2022/05/29 10:49:25;;;;;;;4.35;2.30;;;;;;;;;;6335060;28;20437;-77
2022/05/29 10:52:49;;;;;;;3.25;2.30;;;;;;;;;;6338274;28;20126;-79
2022/05/29 10:56:12;;;;;;;3.53;2.20;;;;;;;;;;6328270;28;20050;-78
2022/05/29 10:59:29;;;;;;;4.82;2.40;;;;;;;;;;6337948;28;20050;-76
2022/05/29 11:06:37;;;;;;;2.08;1.70;;;;;;;;;;6335222;27;20039;-77
2022/05/29 11:10:18;;;;;;;1.80;1.70;;;;;;;;;;6359628;27;20125;-77
2022/05/29 11:13:59;;;;;;;1.88;1.75;;;;;;;;;;6314070;27;20449;-79
2022/05/29 11:17:11;;;;;;;3.45;1.70;;;;;;;;;;6338418;28;20119;-78
2022/05/29 11:20:12;;;;;;;1.48;1.13;;;;;;;;;;6340769;27;20048;-79
2022/05/29 11:23:52;;;;;;;1.83;1.58;;;;;;;;;;6337468;28;20504;-80
2022/05/29 11:27:28;;;;;;;2.55;1.20;;;;;;;;;;6340332;27;20122;-78
2022/05/29 11:30:45;;;;;;;3.08;1.90;;;;;;;;;;6335075;28;20055;-79
2022/05/29 11:34:24;;;;;;;2.05;1.40;;;;;;;;;;6342138;27;20040;-79
2022/05/29 11:37:50;;;;;;;3.17;1.40;;;;;;;;;;6324074;28;20192;-77
2022/05/29 11:41:04;;;;;;;1.60;1.40;;;;;;;;;;6330736;28;20067;-77
2022/05/29 11:44:13;;;;;;;2.13;1.58;;;;;;;;;;6326147;28;20074;-79
2022/05/29 11:51:08;;;;;;;1.67;1.48;;;;;;;;;;6316465;28;20054;-78
2022/05/29 11:54:26;;;;;;;1.00;1.00;;;;;;;;;;6338726;27;20440;-79
2022/05/29 11:57:43;;;;;;;1.30;1.20;;;;;;;;;;6318971;28;20060;-75
2022/05/29 12:00:55;;;;;;;2.08;1.30;;;;;;;;;;6323705;28;20051;-77
2022/05/29 12:04:08;;;;;;;1.65;1.23;;;;;;;;;;6337289;28;20128;-77
2022/05/29 12:07:16;;;;;;;;;;;;;;;;;;6336638;28;20078;-77
2022/05/29 12:10:23;;;;;;;1.90;1.42;;;;;;;;;;6339547;28;19924;-77
2022/05/29 12:13:32;;;;;;;2.20;1.40;;;;;;;;;;6339594;28;20049;-80
2022/05/29 12:16:37;;;;;;;2.40;1.45;;;;;;;;;;6331883;28;20046;-78
2022/05/29 12:20:02;;;;;;;2.85;1.55;;;;;;;;;;6332729;27;20456;-80
2022/05/29 12:23:31;;;;;;;2.72;1.60;;;;;;;;;;6283094;28;20047;-80
2022/05/29 12:27:01;;;;;;;1.98;1.30;;;;;;;;;;6327252;28;20044;-79
2022/05/29 12:30:17;;;;;;;3.72;1.40;;;;;;;;;;6337239;27;20107;-78
2022/05/29 12:33:23;;;;;;;2.20;1.38;;;;;;;;;;6334057;28;20173;-77
2022/05/29 12:36:41;;;;;;;2.10;1.30;;;;;;;;;;6317281;28;20421;-79
2022/05/29 12:40:20;;;;;;;1.92;1.38;;;;;;;;;;6311057;28;20142;-79
2022/05/29 12:43:55;;;;;;;2.25;1.20;;;;;;;;;;6336870;28;20060;-78
2022/05/29 12:47:44;;;;;;;1.83;1.23;;;;;;;;;;6308029;27;20044;-76
2022/05/29 12:51:32;;;;;;;1.73;1.13;;;;;;;;;;6220481;28;20056;-77
2022/05/29 12:54:53;;;;;;;1.40;1.20;;;;;;;;;;6263819;27;20077;-77
2022/05/29 12:58:22;;;;;;;2.42;1.00;;;;;;;;;;6338682;28;20090;-78
2022/05/29 13:01:53;;;;;;;1.38;1.13;;;;;;;;;;6335796;28;20055;-78
2022/05/29 13:05:17;;;;;;;1.67;1.30;;;;;;;;;;6318635;27;20046;-78
2022/05/29 13:08:45;;;;;;;1.30;1.20;;;;;;;;;;6330791;28;20096;-78
2022/05/29 13:11:51;;;;;;;1.15;1.05;;;;;;;;;;6333251;28;20174;-77
2022/05/29 13:14:56;;;;;;;1.48;1.30;;;;;;;;;;6338080;27;20047;-78
2022/05/29 13:18:02;;;;;;;1.65;1.20;;;;;;;;;;6340098;28;20213;-81
2022/05/29 13:21:19;;;;;;;1.30;1.20;;;;;;;;;;6338050;28;20352;-79
2022/05/29 13:24:24;;;;;;;1.42;1.20;;;;;;;;;;6341911;28;20123;-78
2022/05/29 13:27:28;;;;;;;0.95;0.95;;;;;;;;;;6341976;27;20069;-79
2022/05/29 13:30:36;;;;;;;1.15;1.05;;;;;;;;;;6339590;28;20127;-79
2022/05/29 13:33:49;;;;;;;1.20;1.10;;;;;;;;;;6336339;28;20075;-78
2022/05/29 13:36:53;;;;;;;;;;;;;;;;;;6334099;28;20048;-79
2022/05/29 13:40:06;;;;;;;1.20;1.08;;;;;;;;;;6338234;28;19924;-80
2022/05/29 13:43:14;;;;;;;1.98;1.30;;;;;;;;;;6337863;28;20051;-79
2022/05/29 13:46:21;;;;;;;2.95;1.50;;;;;;;;;;6339561;28;20051;-77
2022/05/29 13:49:25;;;;;;;1.48;1.13;;;;;;;;;;6336149;28;20126;-79
2022/05/29 13:52:46;;;;;;;1.40;1.30;;;;;;;;;;6325986;28;20059;-77
2022/05/29 13:56:03;;;;;;;2.33;1.38;;;;;;;;;;6307538;27;21189;-79
2022/05/29 14:06:22;;;;;;;1.73;1.10;;;;;;;;;;6355066;27;20252;-79
2022/05/29 14:09:23;;;;;;;2.13;1.20;;;;;;;;;;6341086;28;20128;-78
2022/05/29 14:12:25;;;;;;;1.30;1.20;;;;;;;;;;6329065;28;20152;-77
2022/05/29 14:15:35;;;;;;;1.83;1.10;;;;;;;;;;6338429;27;20371;-78
2022/05/29 14:18:45;;;;;;;1.80;0.80;;;;;;;;;;6332034;27;20086;-79
2022/05/29 14:22:02;;;;;;;0.85;0.85;;;;;;;;;;6315112;28;20082;-77
2022/05/29 14:25:44;;;;;;;0.90;0.90;;;;;;;;;;6343415;27;20134;-77
2022/05/29 14:29:17;;;;;;;0.70;0.70;;;;;;;;;;6331536;27;20169;-76
2022/05/29 14:32:53;;;;;;;1.38;0.80;;;;;;;;;;6319977;27;20173;-77
2022/05/29 14:35:57;;;;;;;0.80;0.80;;;;;;;;;;6343973;27;20482;-76
2022/05/29 14:39:33;;;;;;;0.90;0.90;;;;;;;;;;6346239;27;20112;-76
2022/05/29 14:42:40;;;;;;;1.50;1.20;;;;;;;;;;6345050;27;20126;-77
2022/05/29 14:46:00;;;;;;;2.08;1.00;;;;;;;;;;6352939;27;20047;-79
2022/05/29 14:49:20;;;;;;;1.40;1.00;;;;;;;;;;6340411;27;20150;-76
2022/05/29 14:53:08;;;;;;;0.98;0.90;;;;;;;;;;6334614;28;20048;-77
2022/05/29 14:56:12;;;;;;;1.45;0.80;;;;;;;;;;6317234;27;20101;-77
2022/05/29 14:59:19;;;;;;;0.90;0.90;;;;;;;;;;6353436;27;20120;-78
2022/05/29 15:02:20;;;;;;;1.42;1.00;;;;;;;;;;6330427;27;20047;-77
2022/05/29 15:05:23;;;;;;;1.25;1.00;;;;;;;;;;6325577;27;20071;-77
2022/05/29 15:12:04;;;;;;;1.13;1.00;;;;;;;;;;6338742;28;20047;-79
2022/05/29 15:15:17;;;;;;;0.75;0.70;;;;;;;;;;6324115;28;20130;-77
2022/05/29 15:18:31;;;;;;;0.93;0.75;;;;;;;;;;6340036;28;20043;-78
2022/05/29 15:25:10;;;;;;;1.00;0.80;;;;;;;;;;6336428;28;20046;-78
2022/05/29 15:28:12;;;;;;;1.00;0.63;;;;;;;;;;6319272;28;20051;-79
2022/05/29 15:31:21;;;;;;;1.50;0.60;;;;;;;;;;6338526;28;20126;-79
2022/05/29 15:34:40;;;;;;;0.88;0.50;;;;;;;;;;6339483;28;20050;-80
2022/05/29 15:38:27;;;;;;;0.80;0.43;;;;;;;;;;6331142;28;20107;-79
2022/05/29 15:42:00;;;;;;;2.28;1.25;;;;;;;;;;6321131;28;20173;-79
2022/05/29 15:45:08;;;;;;;;;;;;;;;;;;6328725;28;20052;-80
2022/05/29 15:48:28;;;;;;;0.55;0.40;;;;;;;;;;6338138;28;19919;-80
2022/05/29 15:51:48;;;;;;;1.02;0.57;;;;;;;;;;6339785;27;20040;-80
2022/05/29 15:55:15;;;;;;;0.82;0.60;;;;;;;;;;6328141;28;20032;-79
2022/05/29 15:58:48;;;;;;;1.20;0.50;;;;;;;;;;6341167;28;20031;-78
2022/05/29 16:02:05;;;;;;;1.40;0.60;;;;;;;;;;6334483;28;20170;-78
2022/05/29 16:05:15;;;;;;;2.30;1.10;;;;;;;;;;6339855;28;20051;-78
2022/05/29 16:08:26;;;;;;;0.60;0.40;;;;;;;;;;6338192;28;20515;-79
2022/05/29 16:11:32;;;;;;;2.40;2.10;;;;;;;;;;6339004;28;20419;-80
2022/05/29 16:14:38;;;;;;;0.60;0.60;;;;;;;;;;6339512;28;20394;-80
2022/05/29 16:17:58;;;;;;;0.73;0.40;;;;;;;;;;6315726;28;20063;-79
2022/05/29 16:21:23;;;;;;;0.30;0.30;;;;;;;;;;6343626;27;20067;-80
2022/05/29 16:24:51;;;;;;;0.40;0.40;;;;;;;;;;6334643;28;20116;-80
2022/05/29 16:27:56;;;;;;;1.75;0.50;;;;;;;;;;6324171;28;20044;-79
2022/05/29 16:31:09;;;;;;;0.90;0.45;;;;;;;;;;6344353;27;20149;-78
2022/05/29 16:34:26;;;;;;;0.43;0.40;;;;;;;;;;6319660;28;20047;-79
2022/05/29 16:48:49;;;;;;;1.15;0.50;;;;;;;;;;6335468;28;20116;-80
2022/05/29 16:51:56;;;;;;;0.55;0.50;;;;;;;;;;6281549;28;20071;-79
2022/05/29 16:55:08;;;;;;;0.65;0.50;;;;;;;;;;6335838;28;20127;-79
2022/05/29 16:58:21;;;;;;;0.50;0.50;;;;;;;;;;6339133;28;20168;-78
2022/05/29 17:01:38;;;;;;;0.65;0.57;;;;;;;;;;6332847;28;20043;-78
2022/05/29 17:04:55;;;;;;;0.40;0.40;;;;;;;;;;6330591;27;20047;-78
2022/05/29 17:08:21;;;;;;;0.50;0.40;;;;;;;;;;6329659;28;20036;-78
2022/05/29 17:11:24;;;;;;;0.65;0.50;;;;;;;;;;6330989;28;20057;-80
2022/05/29 17:14:27;;;;;;;0.40;0.40;;;;;;;;;;6332904;28;20047;-79
2022/05/29 17:17:30;;;;;;;0.82;0.68;;;;;;;;;;6304440;28;20043;-80
2022/05/29 17:20:54;;;;;;;0.50;0.50;;;;;;;;;;6329696;28;20131;-79
2022/05/29 17:24:10;;;;;;;0.40;0.40;;;;;;;;;;6337490;28;20055;-80
2022/05/29 17:27:24;;;;;;;0.93;0.57;;;;;;;;;;6335087;28;20051;-81
2022/05/29 17:30:35;;;;;;;0.40;0.40;;;;;;;;;;6340559;27;20107;-80
2022/05/29 17:33:52;;;;;;;1.45;0.47;;;;;;;;;;6331066;28;20050;-79
2022/05/29 17:37:03;;;;;;;0.50;0.50;;;;;;;;;;6333794;28;20046;-80
2022/05/29 17:40:11;;;;;;;0.70;0.70;;;;;;;;;;6335770;28;20134;-81
2022/05/29 17:43:13;;;;;;;1.08;0.50;;;;;;;;;;6339447;28;20037;-80
2022/05/29 17:46:25;;;;;;;0.90;0.70;;;;;;;;;;6347383;27;20101;-80
2022/05/29 17:50:10;;;;;;;1.88;0.63;;;;;;;;;;6334968;28;20033;-82
2022/05/29 17:53:21;;;;;;;1.63;0.80;;;;;;;;;;6315455;28;20082;-80
2022/05/29 17:56:24;;;;;;;0.70;0.60;;;;;;;;;;6337689;28;20065;-81
2022/05/29 17:59:28;;;;;;;2.03;0.82;;;;;;;;;;6332807;28;20035;-82
2022/05/29 18:02:30;;;;;;;5.07;3.20;;;;;;;;;;6332840;28;20067;-82
2022/05/29 18:05:32;;;;;;;2.15;1.08;;;;;;;;;;6343666;28;20075;-80
2022/05/29 18:08:34;;;;;;;1.60;0.73;;;;;;;;;;6320957;28;20047;-80
2022/05/29 18:11:40;;;;;;;1.60;0.70;;;;;;;;;;6314571;28;20403;-80
2022/05/29 18:14:42;;;;;;;1.45;0.77;;;;;;;;;;6327613;28;20059;-81
2022/05/29 18:17:44;;;;;;;1.33;0.65;;;;;;;;;;6333177;28;20054;-79
2022/05/29 18:20:46;;;;;;;1.70;1.10;;;;;;;;;;6337325;28;20110;-80
2022/05/29 18:23:48;;;;;;;1.58;0.85;;;;;;;;;;6316891;28;20551;-82
2022/05/29 18:26:49;;;;;;;1.00;0.73;;;;;;;;;;6320699;28;20408;-80
2022/05/29 18:29:51;;;;;;;2.25;0.80;;;;;;;;;;6321265;28;20039;-80
2022/05/29 18:32:53;;;;;;;2.03;0.90;;;;;;;;;;6349452;28;20085;-81
2022/05/29 18:35:55;;;;;;;1.45;0.90;;;;;;;;;;6348079;28;20118;-80
2022/05/29 18:38:57;;;;;;;1.42;0.77;;;;;;;;;;6327443;28;20089;-80
2022/05/29 18:41:59;;;;;;;1.48;0.75;;;;;;;;;;6339347;28;20054;-81
2022/05/29 18:45:02;;;;;;;2.63;0.98;;;;;;;;;;6324627;27;20052;-79
2022/05/29 18:48:04;;;;;;;1.33;0.90;;;;;;;;;;6343327;27;20205;-80
2022/05/29 18:51:17;;;;;;;0.75;0.75;;;;;;;;;;6345954;27;20054;-79
2022/05/29 18:54:21;;;;;;;1.10;1.00;;;;;;;;;;6314326;28;20035;-81
2022/05/29 18:57:23;;;;;;;1.85;1.10;;;;;;;;;;6347228;27;20043;-81
2022/05/29 19:00:25;;;;;;;2.43;1.03;;;;;;;;;;6348473;27;20046;-82
2022/05/29 19:03:27;;;;;;;1.52;1.00;;;;;;;;;;6329211;28;20124;-82
2022/05/29 19:06:29;;;;;;;2.33;1.20;;;;;;;;;;6347487;27;20504;-81
2022/05/29 19:09:30;;;;;;;1.42;1.33;;;;;;;;;;6343535;28;20082;-81
2022/05/29 19:12:32;;;;;;;1.90;1.00;;;;;;;;;;6341406;28;20404;-81
2022/05/29 19:15:34;;;;;;;1.95;1.00;;;;;;;;;;6324245;28;20134;-81
2022/05/29 19:18:36;;;;;;;2.47;0.95;;;;;;;;;;6334366;28;20043;-81
2022/05/29 19:21:37;;;;;;;2.10;1.05;;;;;;;;;;6318218;28;20058;-82
2022/05/29 19:24:39;;;;;;;1.60;1.23;;;;;;;;;;6307211;28;20052;-82
2022/05/29 19:27:41;;;;;;;3.08;1.40;;;;;;;;;;6335526;28;20108;-80
2022/05/29 19:30:43;;;;;;;1.20;1.05;;;;;;;;;;6316066;28;20085;-79
2022/05/29 19:33:45;;;;;;;1.23;1.13;;;;;;;;;;6323616;28;20039;-81
2022/05/29 19:36:47;;;;;;;1.17;1.08;;;;;;;;;;6329158;27;20051;-80
2022/05/29 19:39:49;;;;;;;1.58;0.90;;;;;;;;;;6326412;28;20132;-80
2022/05/29 19:42:51;;;;;;;2.20;1.20;;;;;;;;;;6333032;27;20048;-80
2022/05/29 19:45:53;;;;;;;1.70;1.60;;;;;;;;;;6327748;28;20126;-79
2022/05/29 19:48:55;;;;;;;1.98;1.17;;;;;;;;;;6332777;27;20097;-80
2022/05/29 19:51:58;;;;;;;1.35;1.20;;;;;;;;;;6334224;27;20059;-80
2022/05/29 19:55:00;;;;;;;1.60;1.50;;;;;;;;;;6342845;27;20385;-80
2022/05/29 19:58:01;;;;;;;1.83;1.50;;;;;;;;;;6330420;28;20520;-79